Time;durP1;ratioP1;P1;durP2;ratioP2;P2;SDS_P1;SDS_P2;PMS_P1;PMS_P2;Temp;Humidity;BMP_temperature;BMP_pressure;BME280_temperature;BME280_humidity;BME280_pressure;Samples;Min_cycle;Max_cycle;Signal;HPM_P1;HPM_P2
2022/10/24 00:02:24;;;;;;;4.90;1.33;;;15.10;99.90;;;;;;5050966;28;20139;-75
2022/10/24 00:04:49;;;;;;;7.63;1.65;;;15.00;99.90;;;;;;5051520;28;21017;-75
2022/10/24 00:07:15;;;;;;;6.28;1.23;;;15.00;99.90;;;;;;5049688;28;20032;-75
2022/10/24 00:09:41;;;;;;;6.80;1.02;;;15.10;99.90;;;;;;5049816;28;20032;-75
2022/10/24 00:12:06;;;;;;;6.45;1.20;;;15.10;99.90;;;;;;5050208;28;20040;-74
2022/10/24 00:14:33;;;;;;;6.13;0.90;;;15.10;99.90;;;;;;5049316;28;20111;-75
2022/10/24 00:16:58;;;;;;;6.20;1.10;;;15.10;99.90;;;;;;5051622;28;20508;-74
2022/10/24 00:19:24;;;;;;;5.65;1.05;;;15.10;99.90;;;;;;5050789;28;20037;-75
2022/10/24 00:21:49;;;;;;;6.32;1.35;;;15.10;99.90;;;;;;5048981;28;20028;-74
2022/10/24 00:24:15;;;;;;;11.45;1.73;;;15.10;99.90;;;;;;5048782;28;20048;-74
2022/10/24 00:26:41;;;;;;;6.72;1.00;;;15.10;99.90;;;;;;5048784;28;20118;-75
2022/10/24 00:29:07;;;;;;;6.75;1.17;;;15.20;99.90;;;;;;5050209;28;20041;-74
2022/10/24 00:31:33;;;;;;;4.30;0.93;;;15.20;99.90;;;;;;5049475;28;20037;-74
2022/10/24 00:33:59;;;;;;;3.83;0.85;;;15.20;99.90;;;;;;5049119;28;20055;-75
2022/10/24 00:36:26;;;;;;;4.38;1.10;;;15.30;99.90;;;;;;5055338;28;20037;-74
2022/10/24 00:38:53;;;;;;;6.82;1.15;;;15.30;99.90;;;;;;5050147;28;20040;-73
2022/10/24 00:41:22;;;;;;;6.30;0.77;;;15.30;99.90;;;;;;5049727;28;20089;-74
2022/10/24 00:43:49;;;;;;;6.07;1.13;;;15.40;99.90;;;;;;5050362;28;20051;-74
2022/10/24 00:46:16;;;;;;;4.25;1.42;;;15.40;99.90;;;;;;5049312;28;20450;-75
2022/10/24 00:48:53;;;;;;;7.20;1.27;;;15.40;99.90;;;;;;5049476;28;20131;-75
2022/10/24 00:51:29;;;;;;;3.75;0.75;;;15.40;99.90;;;;;;5048441;28;20040;-75
2022/10/24 00:54:05;;;;;;;4.55;0.98;;;15.40;99.90;;;;;;5046324;28;20020;-75
2022/10/24 00:56:36;;;;;;;4.15;1.27;;;15.40;99.90;;;;;;5048559;28;20151;-75
2022/10/24 00:59:06;;;;;;;6.32;0.80;;;15.30;99.90;;;;;;5050041;28;20040;-75
2022/10/24 01:01:33;;;;;;;8.10;1.00;;;15.30;99.90;;;;;;5053639;28;20487;-75
2022/10/24 01:03:58;;;;;;;5.40;0.80;;;15.40;99.90;;;;;;5053850;28;22011;-75
2022/10/24 01:06:50;;;;;;;4.72;1.00;;;15.40;99.90;;;;;;5048495;28;20029;-74
2022/10/24 01:09:39;;;;;;;6.67;0.80;;;15.40;99.90;;;;;;5047209;28;20044;-75
2022/10/24 01:12:23;;;;;;;5.78;0.73;;;15.50;99.90;;;;;;5049840;28;20117;-75
2022/10/24 01:15:16;;;;;;;7.55;1.17;;;15.50;99.90;;;;;;5049340;28;20078;-75
2022/10/24 01:17:55;;;;;;;4.30;0.73;;;15.50;99.90;;;;;;5052140;28;20043;-75
2022/10/24 01:20:55;;;;;;;4.45;0.68;;;15.50;99.90;;;;;;5050412;28;20075;-74
2022/10/24 01:23:52;;;;;;;5.10;0.75;;;15.50;99.90;;;;;;5009924;28;20405;-75
2022/10/24 01:26:52;;;;;;;5.95;0.75;;;15.50;99.90;;;;;;5046626;28;20826;-74
2022/10/24 01:29:22;;;;;;;8.02;0.88;;;15.50;99.90;;;;;;5049215;28;20035;-74
2022/10/24 01:32:01;;;;;;;5.32;0.82;;;15.40;99.90;;;;;;5048946;28;20500;-75
2022/10/24 01:34:43;;;;;;;4.22;0.68;;;15.40;99.90;;;;;;5052225;28;20052;-74
2022/10/24 01:37:16;;;;;;;4.80;0.73;;;15.30;99.90;;;;;;5058659;28;20032;-74
2022/10/24 01:39:47;;;;;;;5.72;0.70;;;15.30;99.90;;;;;;5051933;28;20028;-75
2022/10/24 01:42:15;;;;;;;2.75;0.60;;;15.20;99.90;;;;;;5048228;28;20162;-75
2022/10/24 01:44:46;;;;;;;6.15;0.75;;;15.20;99.90;;;;;;5048319;28;20033;-74
2022/10/24 01:47:15;;;;;;;5.50;1.08;;;15.20;99.90;;;;;;5050579;28;20111;-74
2022/10/24 01:49:45;;;;;;;2.88;0.75;;;15.20;99.90;;;;;;5049394;28;20040;-76
2022/10/24 01:52:15;;;;;;;5.75;0.90;;;15.20;99.90;;;;;;5051015;28;20110;-75
2022/10/24 01:54:43;;;;;;;7.47;1.33;;;15.20;99.90;;;;;;5051887;28;20036;-75
2022/10/24 01:57:09;;;;;;;2.70;0.70;;;15.20;99.90;;;;;;5047256;28;20097;-75
2022/10/24 01:59:40;;;;;;;5.47;1.67;;;15.20;99.90;;;;;;5050125;28;20036;-75
2022/10/24 02:02:15;;;;;;;5.85;0.75;;;15.30;99.90;;;;;;5055378;28;20086;-75
2022/10/24 02:04:50;;;;;;;5.40;0.65;;;15.20;99.90;;;;;;5053038;28;20931;-75
2022/10/24 02:07:18;;;;;;;5.60;0.80;;;15.20;99.90;;;;;;5050064;28;20571;-74
2022/10/24 02:09:47;;;;;;;4.28;0.80;;;15.20;99.90;;;;;;5052873;28;20081;-75
2022/10/24 02:12:15;;;;;;;5.60;1.08;;;15.30;99.90;;;;;;5055134;28;20126;-75
2022/10/24 02:14:48;;;;;;;7.68;0.80;;;15.20;99.90;;;;;;5051241;28;20035;-75
2022/10/24 02:17:14;;;;;;;4.82;0.68;;;15.20;99.90;;;;;;5053713;28;20048;-75
2022/10/24 02:19:41;;;;;;;5.97;0.90;;;15.20;99.90;;;;;;5055838;28;20036;-75
2022/10/24 02:22:14;;;;;;;5.47;0.77;;;15.20;99.90;;;;;;5054539;28;20031;-75
2022/10/24 02:24:53;;;;;;;5.63;0.73;;;15.20;99.90;;;;;;5050370;28;20063;-74
2022/10/24 02:27:37;;;;;;;3.47;0.77;;;15.20;99.90;;;;;;5069296;28;20017;-74
2022/10/24 02:30:09;;;;;;;6.40;0.60;;;15.30;99.90;;;;;;5051882;28;20127;-75
2022/10/24 02:32:39;;;;;;;7.72;0.65;;;15.30;99.90;;;;;;5050579;28;20028;-74
2022/10/24 02:35:06;;;;;;;5.88;0.93;;;15.30;99.90;;;;;;5052974;28;20507;-73
2022/10/24 02:37:35;;;;;;;7.05;0.70;;;15.30;99.90;;;;;;5057230;28;20389;-73
2022/10/24 02:40:04;;;;;;;5.95;0.68;;;15.30;99.90;;;;;;5051586;28;20085;-73
2022/10/24 02:42:31;;;;;;;4.32;0.50;;;15.30;99.90;;;;;;5051075;28;20062;-74
2022/10/24 02:44:57;;;;;;;4.03;0.68;;;15.30;99.90;;;;;;5050653;28;20037;-73
2022/10/24 02:47:25;;;;;;;4.65;0.57;;;15.30;99.90;;;;;;5054391;28;20036;-73
2022/10/24 02:49:51;;;;;;;2.72;0.60;;;15.30;99.90;;;;;;5054563;28;20020;-73
2022/10/24 02:52:17;;;;;;;7.38;0.50;;;15.30;99.90;;;;;;5051663;28;20036;-73
2022/10/24 02:54:43;;;;;;;5.47;0.77;;;15.20;99.90;;;;;;5050614;28;20017;-73
2022/10/24 02:57:08;;;;;;;6.90;0.60;;;15.30;99.90;;;;;;5051701;28;20044;-73
2022/10/24 02:59:34;;;;;;;9.90;0.70;;;15.30;99.90;;;;;;5053039;28;20500;-74
2022/10/24 03:01:59;;;;;;;4.10;1.05;;;15.30;99.90;;;;;;5049902;28;20043;-73
2022/10/24 03:04:25;;;;;;;5.03;0.50;;;15.20;99.90;;;;;;5052001;28;22003;-73
2022/10/24 03:06:52;;;;;;;5.07;0.65;;;15.30;99.90;;;;;;5050228;28;20121;-73
2022/10/24 03:09:17;;;;;;;3.40;0.50;;;15.30;99.90;;;;;;5050458;28;20098;-73
2022/10/24 03:11:43;;;;;;;6.35;0.70;;;15.20;99.90;;;;;;5053324;28;20079;-74
2022/10/24 03:14:08;;;;;;;4.00;0.40;;;15.30;99.90;;;;;;5053220;28;20032;-74
2022/10/24 03:16:34;;;;;;;1.98;0.40;;;15.20;99.90;;;;;;5052454;28;20025;-74
2022/10/24 03:18:59;;;;;;;3.75;0.60;;;15.30;99.90;;;;;;5050606;28;20040;-73
2022/10/24 03:21:25;;;;;;;4.75;0.52;;;15.30;99.90;;;;;;5049724;28;20032;-72
2022/10/24 03:23:51;;;;;;;3.58;0.52;;;15.40;99.90;;;;;;5051103;28;20056;-73
2022/10/24 03:26:16;;;;;;;3.97;0.70;;;15.40;99.90;;;;;;5051459;28;20051;-73
2022/10/24 03:28:42;;;;;;;2.70;0.40;;;15.40;99.90;;;;;;5054899;28;20116;-73
2022/10/24 03:31:07;;;;;;;4.10;0.57;;;15.40;99.90;;;;;;5049796;28;20075;-74
2022/10/24 03:33:33;;;;;;;4.15;0.50;;;15.50;99.90;;;;;;5048917;28;20453;-73
2022/10/24 03:35:59;;;;;;;5.47;0.40;;;15.50;99.90;;;;;;5050228;28;20499;-73
2022/10/24 03:38:25;;;;;;;6.38;0.40;;;15.50;99.90;;;;;;5058143;28;20040;-73
2022/10/24 03:40:50;;;;;;;1.40;0.40;;;15.50;99.90;;;;;;5052577;28;20028;-73
2022/10/24 03:43:17;;;;;;;3.70;0.30;;;15.60;99.90;;;;;;5048354;28;20028;-73
2022/10/24 03:45:43;;;;;;;2.72;0.50;;;15.60;99.90;;;;;;5052536;28;20111;-73
2022/10/24 03:48:08;;;;;;;5.10;0.73;;;15.60;99.90;;;;;;5049804;28;20039;-73
2022/10/24 03:50:34;;;;;;;2.65;0.40;;;15.60;99.90;;;;;;5050220;28;20115;-73
2022/10/24 03:53:00;;;;;;;4.78;0.60;;;15.60;99.90;;;;;;5048865;28;20039;-74
2022/10/24 03:55:26;;;;;;;4.03;0.40;;;15.50;99.90;;;;;;5051231;28;20033;-73
2022/10/24 03:57:52;;;;;;;8.20;0.40;;;15.50;99.90;;;;;;5048990;28;20131;-73
2022/10/24 04:00:18;;;;;;;2.08;0.50;;;15.50;99.90;;;;;;5049803;28;20028;-73
2022/10/24 04:02:45;;;;;;;8.23;0.75;;;15.50;99.90;;;;;;5048154;28;20036;-74
2022/10/24 04:05:11;;;;;;;5.78;0.52;;;15.50;99.90;;;;;;5047880;28;20067;-73
2022/10/24 04:07:37;;;;;;;4.90;0.30;;;15.50;99.90;;;;;;5045120;28;20036;-75
2022/10/24 04:10:04;;;;;;;5.15;0.40;;;15.50;99.90;;;;;;5050404;28;20027;-74
2022/10/24 04:12:30;;;;;;;3.70;0.40;;;15.40;99.90;;;;;;5047126;28;20028;-75
2022/10/24 04:14:55;;;;;;;3.47;0.30;;;15.40;99.90;;;;;;5049967;28;20093;-75
2022/10/24 04:17:21;;;;;;;2.97;0.40;;;15.30;99.90;;;;;;5049077;28;20393;-74
2022/10/24 04:19:46;;;;;;;4.03;0.60;;;15.30;99.90;;;;;;5047645;28;20392;-75
2022/10/24 04:22:12;;;;;;;3.53;0.40;;;15.20;99.90;;;;;;5046432;28;20541;-76
2022/10/24 04:24:38;;;;;;;3.58;0.40;;;15.20;99.90;;;;;;5052876;28;20052;-74
2022/10/24 04:27:04;;;;;;;7.35;0.45;;;15.20;99.90;;;;;;5050492;28;20029;-74
2022/10/24 04:29:30;;;;;;;6.40;0.40;;;15.10;99.90;;;;;;5050943;28;20052;-74
2022/10/24 04:31:55;;;;;;;6.53;0.40;;;15.10;99.90;;;;;;5060042;28;20055;-74
2022/10/24 04:34:21;;;;;;;5.03;0.40;;;15.10;99.90;;;;;;5056662;28;20470;-75
2022/10/24 04:36:46;;;;;;;2.42;0.40;;;15.10;99.90;;;;;;5047766;28;20131;-75
2022/10/24 04:39:12;;;;;;;5.68;0.45;;;15.10;99.90;;;;;;5047880;28;20230;-75
2022/10/24 04:41:37;;;;;;;4.28;0.50;;;15.10;99.90;;;;;;5045948;28;20021;-75
2022/10/24 04:44:03;;;;;;;3.80;0.43;;;15.10;99.90;;;;;;5048419;28;20509;-75
2022/10/24 04:46:29;;;;;;;3.28;0.40;;;15.10;99.90;;;;;;5047113;28;20062;-75
2022/10/24 04:48:54;;;;;;;5.07;0.50;;;15.20;99.90;;;;;;5047619;28;20618;-75
2022/10/24 04:51:20;;;;;;;6.43;0.43;;;15.20;99.90;;;;;;5046654;28;20028;-75
2022/10/24 04:53:46;;;;;;;4.35;0.60;;;15.20;99.90;;;;;;5047248;28;20031;-75
2022/10/24 04:56:11;;;;;;;4.20;0.40;;;15.20;99.90;;;;;;5045289;28;20032;-75
2022/10/24 04:58:37;;;;;;;4.32;0.35;;;15.20;99.90;;;;;;5045111;28;20043;-75
2022/10/24 05:01:03;;;;;;;7.05;0.40;;;15.20;99.90;;;;;;5045785;28;20481;-75
2022/10/24 05:03:28;;;;;;;4.55;0.63;;;15.20;99.90;;;;;;5048571;28;20024;-74
2022/10/24 05:05:54;;;;;;;5.57;0.40;;;15.20;99.90;;;;;;5045552;28;20834;-75
2022/10/24 05:08:20;;;;;;;3.13;0.30;;;15.20;99.90;;;;;;5044248;28;20749;-74
2022/10/24 05:10:45;;;;;;;4.03;0.30;;;15.20;99.90;;;;;;5045275;28;20504;-75
2022/10/24 05:13:11;;;;;;;3.45;0.40;;;15.30;99.90;;;;;;5046389;28;20404;-75
2022/10/24 05:15:36;;;;;;;6.43;0.45;;;15.30;99.90;;;;;;5055230;28;20826;-75
2022/10/24 05:18:02;;;;;;;3.40;0.40;;;15.30;99.90;;;;;;5051958;28;20048;-75
2022/10/24 05:20:28;;;;;;;3.60;0.50;;;15.30;99.90;;;;;;5067234;28;20082;-74
2022/10/24 05:22:53;;;;;;;4.47;0.40;;;15.30;99.90;;;;;;5056322;28;20043;-73
2022/10/24 05:25:19;;;;;;;5.13;0.63;;;15.30;99.90;;;;;;5063491;28;20037;-74
2022/10/24 05:27:45;;;;;;;4.78;0.32;;;15.30;99.90;;;;;;5053605;28;20059;-73
2022/10/24 05:30:10;;;;;;;7.82;0.40;;;15.20;99.90;;;;;;5057695;28;20106;-74
2022/10/24 05:32:36;;;;;;;2.67;0.30;;;15.20;99.90;;;;;;5055040;28;20032;-74
2022/10/24 05:35:03;;;;;;;4.47;0.30;;;15.20;99.90;;;;;;5046256;28;20044;-74
2022/10/24 05:37:28;;;;;;;7.55;0.45;;;15.20;99.90;;;;;;5045633;28;20074;-74
2022/10/24 05:39:54;;;;;;;6.93;0.90;;;15.20;99.90;;;;;;5045863;28;20120;-73
2022/10/24 05:42:19;;;;;;;2.70;0.35;;;15.20;99.90;;;;;;5048566;28;20028;-74
2022/10/24 05:44:45;;;;;;;3.45;0.40;;;15.20;99.90;;;;;;5048025;28;20036;-74
2022/10/24 05:47:10;;;;;;;4.25;0.43;;;15.20;99.90;;;;;;5046815;28;20038;-74
2022/10/24 05:49:36;;;;;;;4.60;0.30;;;15.30;99.90;;;;;;5048877;28;20175;-74
2022/10/24 05:52:02;;;;;;;6.80;0.98;;;15.20;99.90;;;;;;5049178;28;20036;-74
2022/10/24 05:54:27;;;;;;;5.80;0.40;;;15.30;99.90;;;;;;5051453;28;20043;-74
2022/10/24 05:56:53;;;;;;;4.80;0.40;;;15.20;99.90;;;;;;5050276;28;20036;-73
2022/10/24 05:59:18;;;;;;;5.82;0.47;;;15.20;99.90;;;;;;5046845;28;20038;-74
2022/10/24 06:01:44;;;;;;;4.80;0.40;;;15.10;99.90;;;;;;5057071;28;20025;-74
2022/10/24 06:04:09;;;;;;;5.10;0.43;;;15.20;99.90;;;;;;5055316;28;20087;-74
2022/10/24 06:06:42;;;;;;;2.60;0.32;;;15.20;99.90;;;;;;5071899;28;20514;-74
2022/10/24 06:09:08;;;;;;;7.97;0.60;;;15.20;99.90;;;;;;5054871;28;20245;-74
2022/10/24 06:11:34;;;;;;;8.60;0.65;;;15.10;99.90;;;;;;5049115;28;20025;-75
2022/10/24 06:13:59;;;;;;;4.32;0.45;;;15.20;99.90;;;;;;5047714;28;20041;-75
2022/10/24 06:16:26;;;;;;;7.28;0.40;;;15.20;99.90;;;;;;5056701;28;20047;-75
2022/10/24 06:18:52;;;;;;;4.15;0.40;;;15.20;99.90;;;;;;5068230;28;20569;-73
2022/10/24 06:21:18;;;;;;;6.10;0.93;;;15.30;99.90;;;;;;5052673;28;20028;-73
2022/10/24 06:23:44;;;;;;;4.47;0.60;;;15.20;99.90;;;;;;5052661;28;22097;-73
2022/10/24 06:26:13;;;;;;;3.28;0.40;;;15.30;99.90;;;;;;5051616;28;20155;-73
2022/10/24 06:28:38;;;;;;;6.80;0.50;;;15.30;99.90;;;;;;5048753;28;20031;-72
2022/10/24 06:31:04;;;;;;;7.35;0.55;;;15.30;99.90;;;;;;5043927;28;20037;-74
2022/10/24 06:33:34;;;;;;;3.33;0.50;;;15.30;99.90;;;;;;5049320;28;20039;-75
2022/10/24 06:36:05;;;;;;;4.05;0.30;;;15.40;99.90;;;;;;5033190;28;20051;-73
2022/10/24 06:38:31;;;;;;;6.78;1.65;;;15.40;99.90;;;;;;5051198;28;20444;-74
2022/10/24 06:40:57;;;;;;;7.53;0.50;;;15.50;99.90;;;;;;5049606;28;20025;-73
2022/10/24 06:43:23;;;;;;;4.90;0.30;;;15.50;99.90;;;;;;5053336;28;20031;-74
2022/10/24 06:45:49;;;;;;;6.95;0.60;;;15.50;99.90;;;;;;5047143;28;20060;-74
2022/10/24 06:48:15;;;;;;;3.85;0.38;;;15.50;99.90;;;;;;5048215;28;20105;-74
2022/10/24 06:50:41;;;;;;;9.68;0.50;;;15.50;99.90;;;;;;5049931;28;20445;-75
2022/10/24 06:53:08;;;;;;;5.68;0.40;;;15.50;99.90;;;;;;5045785;28;20036;-75
2022/10/24 06:55:37;;;;;;;3.28;0.40;;;15.60;99.90;;;;;;5049168;28;20044;-75
2022/10/24 06:58:05;;;;;;;4.35;0.68;;;15.50;99.90;;;;;;5048060;28;20067;-75
2022/10/24 07:00:32;;;;;;;4.97;0.50;;;15.60;99.90;;;;;;5043650;28;20119;-75
2022/10/24 07:02:58;;;;;;;6.10;0.70;;;15.50;99.90;;;;;;5049357;28;20035;-75
2022/10/24 07:05:26;;;;;;;9.50;1.17;;;15.50;99.90;;;;;;5051168;28;20112;-75
2022/10/24 07:07:52;;;;;;;5.28;0.40;;;15.50;99.90;;;;;;5050579;28;20120;-75
2022/10/24 07:10:18;;;;;;;7.00;0.88;;;15.50;99.90;;;;;;5050256;28;20035;-73
2022/10/24 07:12:43;;;;;;;9.65;0.55;;;15.50;99.90;;;;;;5049103;28;20125;-75
2022/10/24 07:15:10;;;;;;;6.25;0.60;;;15.60;99.90;;;;;;5050536;28;20035;-73
2022/10/24 07:17:42;;;;;;;6.50;1.45;;;15.60;99.90;;;;;;5048157;28;20047;-75
2022/10/24 07:20:09;;;;;;;7.43;0.57;;;15.60;99.90;;;;;;5047294;28;20036;-75
2022/10/24 07:22:35;;;;;;;4.97;0.80;;;15.60;99.90;;;;;;5048586;28;20179;-74
2022/10/24 07:25:04;;;;;;;7.38;0.60;;;15.60;99.90;;;;;;5047158;28;20080;-74
2022/10/24 07:27:30;;;;;;;5.43;0.50;;;15.70;99.90;;;;;;5053392;28;20088;-73
2022/10/24 07:29:55;;;;;;;5.68;0.65;;;15.70;99.90;;;;;;5052707;28;20588;-74
2022/10/24 07:32:21;;;;;;;3.72;0.38;;;15.80;99.90;;;;;;5051850;28;20578;-73
2022/10/24 07:34:47;;;;;;;5.32;0.60;;;15.70;99.90;;;;;;5052211;28;20036;-74
2022/10/24 07:37:16;;;;;;;6.05;0.40;;;15.80;99.90;;;;;;5057058;28;20446;-74
2022/10/24 07:39:42;;;;;;;5.68;0.60;;;15.90;99.90;;;;;;5052574;28;20032;-75
2022/10/24 07:42:10;;;;;;;8.30;0.70;;;15.90;99.90;;;;;;5052208;28;20035;-75
2022/10/24 07:44:36;;;;;;;6.60;0.88;;;15.90;99.90;;;;;;5053971;28;20492;-74
2022/10/24 07:47:05;;;;;;;7.95;0.73;;;15.90;99.90;;;;;;5062208;28;20033;-74
2022/10/24 07:49:32;;;;;;;5.18;0.50;;;16.00;99.90;;;;;;5062001;28;20027;-74
2022/10/24 07:51:58;;;;;;;5.50;0.30;;;16.00;99.90;;;;;;5055787;28;20055;-73
2022/10/24 07:54:25;;;;;;;9.02;0.70;;;16.00;99.90;;;;;;5057669;28;20025;-74
2022/10/24 07:56:51;;;;;;;9.82;0.73;;;16.10;99.90;;;;;;5065571;28;20472;-74
2022/10/24 07:59:16;;;;;;;7.55;1.50;;;16.10;99.90;;;;;;5054364;28;20202;-75
2022/10/24 08:01:42;;;;;;;8.27;0.40;;;16.20;99.90;;;;;;5059089;28;20029;-75
2022/10/24 08:04:09;;;;;;;9.45;0.60;;;16.20;99.90;;;;;;5059795;28;20025;-74
2022/10/24 08:06:34;;;;;;;6.25;0.50;;;16.20;99.90;;;;;;5060244;28;20028;-75
2022/10/24 08:09:00;;;;;;;5.47;0.50;;;16.30;99.90;;;;;;5055515;28;20078;-74
2022/10/24 08:11:27;;;;;;;8.70;0.70;;;16.30;99.90;;;;;;5053862;28;20396;-72
2022/10/24 08:13:56;;;;;;;6.60;0.40;;;16.20;99.90;;;;;;5058745;28;20028;-74
2022/10/24 08:16:22;;;;;;;9.48;1.50;;;16.10;99.90;;;;;;5058185;28;20028;-74
2022/10/24 08:18:50;;;;;;;4.72;0.38;;;16.10;99.90;;;;;;5056226;28;20029;-75
2022/10/24 08:21:17;;;;;;;19.90;0.88;;;16.10;99.90;;;;;;5055562;28;20156;-74
2022/10/24 08:23:46;;;;;;;4.72;0.75;;;16.10;99.90;;;;;;5058597;28;20044;-75
2022/10/24 08:26:15;;;;;;;7.13;0.63;;;16.20;99.90;;;;;;5051204;28;20117;-73
2022/10/24 08:28:41;;;;;;;8.07;0.32;;;16.20;99.90;;;;;;5056805;28;20033;-74
2022/10/24 08:31:14;;;;;;;6.65;0.45;;;16.20;99.90;;;;;;5041518;28;20497;-74
2022/10/24 08:33:40;;;;;;;4.53;0.32;;;16.10;99.90;;;;;;5054957;28;20029;-75
2022/10/24 08:36:19;;;;;;;6.40;0.30;;;16.20;99.90;;;;;;5059098;28;20031;-73
2022/10/24 08:38:45;;;;;;;4.05;0.30;;;16.20;99.90;;;;;;5057160;28;20071;-74
2022/10/24 08:41:26;;;;;;;6.15;0.60;;;16.30;99.90;;;;;;5056062;28;20048;-75
2022/10/24 08:43:57;;;;;;;8.18;0.52;;;16.40;99.90;;;;;;5056027;28;20040;-75
2022/10/24 08:46:29;;;;;;;6.93;0.40;;;16.50;99.90;;;;;;5057023;28;20032;-74
2022/10/24 08:49:34;;;;;;;5.78;0.43;;;16.60;99.90;;;;;;5053047;28;20107;-74
2022/10/24 08:52:10;;;;;;;7.97;0.77;;;16.60;99.90;;;;;;5054795;28;20103;-74
2022/10/24 08:54:40;;;;;;;7.00;0.40;;;16.70;99.90;;;;;;5055910;28;20021;-73
2022/10/24 08:57:09;;;;;;;8.00;0.60;;;16.80;99.90;;;;;;5054128;28;20032;-75
2022/10/24 08:59:36;;;;;;;5.97;0.40;;;16.80;99.90;;;;;;5051618;28;20033;-74
2022/10/24 09:02:17;;;;;;;4.63;0.32;;;16.80;99.90;;;;;;5058172;28;20637;-75
2022/10/24 09:05:15;;;;;;;7.95;0.50;;;16.90;99.90;;;;;;5056291;28;20100;-76
2022/10/24 09:07:45;;;;;;;7.13;0.47;;;16.90;99.90;;;;;;5052477;28;20041;-73
2022/10/24 09:10:21;;;;;;;5.35;0.50;;;16.80;99.90;;;;;;5060739;28;20021;-74
2022/10/24 09:12:50;;;;;;;4.32;0.40;;;16.80;99.90;;;;;;5061282;28;20044;-75
2022/10/24 09:15:28;;;;;;;3.33;0.30;;;16.90;99.90;;;;;;5063306;28;20032;-74
2022/10/24 09:17:56;;;;;;;2.30;0.30;;;16.90;99.90;;;;;;5058799;28;20032;-75
2022/10/24 09:20:32;;;;;;;4.38;0.30;;;17.00;99.90;;;;;;5062233;28;20024;-76
2022/10/24 09:23:02;;;;;;;2.97;0.35;;;17.00;99.90;;;;;;5055880;28;20055;-74
2022/10/24 09:25:34;;;;;;;7.13;0.30;;;17.10;99.90;;;;;;5055578;28;20048;-75
2022/10/24 09:28:02;;;;;;;6.10;0.40;;;17.10;99.90;;;;;;5055386;28;20021;-74
2022/10/24 09:30:29;;;;;;;7.03;0.38;;;17.20;99.90;;;;;;5054537;28;20048;-75
2022/10/24 09:33:02;;;;;;;5.53;0.93;;;17.20;99.90;;;;;;5050736;28;20021;-75
2022/10/24 09:35:34;;;;;;;5.18;0.30;;;17.20;99.90;;;;;;5054993;28;20460;-76
2022/10/24 09:38:32;;;;;;;4.10;0.30;;;17.30;99.90;;;;;;5062071;28;20044;-74
2022/10/24 09:41:02;;;;;;;4.32;0.98;;;17.40;99.90;;;;;;5071916;28;20119;-73
2022/10/24 09:43:49;;;;;;;5.35;0.30;;;17.40;99.90;;;;;;5058696;28;20051;-74
2022/10/24 09:46:25;;;;;;;5.82;0.30;;;17.40;99.90;;;;;;5067423;28;20043;-75
2022/10/24 09:49:21;;;;;;;5.20;0.32;;;17.50;99.90;;;;;;5054124;28;20483;-74
2022/10/24 09:51:59;;;;;;;4.30;0.40;;;17.80;99.90;;;;;;5062643;28;20033;-74
2022/10/24 09:54:28;;;;;;;4.38;0.30;;;17.80;99.90;;;;;;5059669;28;20028;-74
2022/10/24 09:57:07;;;;;;;5.05;0.30;;;17.80;99.90;;;;;;5057641;28;20480;-75
2022/10/24 09:59:43;;;;;;;4.18;0.40;;;17.80;99.90;;;;;;5057193;28;20039;-73
2022/10/24 10:02:23;;;;;;;2.25;0.45;;;17.80;99.90;;;;;;5056950;28;20028;-74
2022/10/24 10:05:06;;;;;;;2.45;0.20;;;17.80;99.90;;;;;;5057675;28;20052;-74
2022/10/24 10:07:38;;;;;;;4.60;0.30;;;17.80;99.90;;;;;;5057394;28;20028;-73
2022/10/24 10:10:22;;;;;;;3.00;0.20;;;17.70;99.90;;;;;;5072579;28;20052;-74
2022/10/24 10:13:01;;;;;;;2.88;0.20;;;17.70;99.90;;;;;;5057156;28;20111;-74
2022/10/24 10:16:01;;;;;;;3.97;0.20;;;17.80;99.90;;;;;;5069653;28;20047;-75
2022/10/24 10:18:44;;;;;;;4.18;0.40;;;17.80;99.90;;;;;;5043416;28;20076;-75
2022/10/24 10:21:17;;;;;;;6.60;0.32;;;17.80;99.90;;;;;;5061422;28;20513;-75
2022/10/24 10:23:42;;;;;;;3.22;0.30;;;17.80;99.90;;;;;;5056425;28;20064;-74
2022/10/24 10:26:29;;;;;;;5.00;0.60;;;17.80;99.90;;;;;;5056667;28;20036;-76
2022/10/24 10:29:25;;;;;;;3.63;0.35;;;17.80;99.90;;;;;;5073384;28;20499;-76
2022/10/24 10:32:06;;;;;;;5.30;0.32;;;17.90;99.90;;;;;;5055049;28;20150;-74
2022/10/24 10:34:44;;;;;;;2.80;0.40;;;18.00;99.90;;;;;;5057247;28;20062;-74
2022/10/24 10:37:27;;;;;;;5.20;0.30;;;18.20;99.90;;;;;;5060175;28;20672;-75
2022/10/24 10:39:53;;;;;;;4.55;0.32;;;18.20;99.90;;;;;;5065162;28;20072;-74
2022/10/24 10:42:27;;;;;;;6.10;0.47;;;18.20;99.90;;;;;;5057479;28;20063;-74
2022/10/24 10:45:09;;;;;;;4.18;0.30;;;18.20;99.90;;;;;;5056885;28;20074;-74
2022/10/24 10:48:25;;;;;;;2.63;0.40;;;18.10;99.90;;;;;;5062772;28;20028;-74
2022/10/24 10:51:02;;;;;;;3.97;0.30;;;18.10;99.90;;;;;;5073271;28;20404;-75
2022/10/24 10:53:53;;;;;;;2.30;0.20;;;18.00;99.90;;;;;;5058486;28;20603;-74
2022/10/24 10:56:31;;;;;;;4.85;0.50;;;18.00;99.90;;;;;;5059809;28;20040;-74
2022/10/24 10:59:22;;;;;;;5.75;0.30;;;18.10;99.90;;;;;;5057707;28;20082;-74
2022/10/24 11:01:55;;;;;;;4.90;0.40;;;18.20;99.90;;;;;;5066574;28;20261;-74
2022/10/24 11:04:32;;;;;;;4.70;0.30;;;18.30;99.90;;;;;;5051787;28;20025;-73
2022/10/24 11:07:43;;;;;;;3.67;0.30;;;18.30;99.90;;;;;;5058018;28;20047;-74
2022/10/24 11:10:16;;;;;;;2.55;0.13;;;18.30;99.90;;;;;;5055941;28;20032;-75
2022/10/24 11:12:44;;;;;;;3.08;0.20;;;18.20;99.90;;;;;;5054216;28;20491;-73
2022/10/24 11:15:25;;;;;;;3.03;0.20;;;18.20;99.90;;;;;;5060726;28;20031;-74
2022/10/24 11:18:04;;;;;;;4.50;0.30;;;18.20;99.90;;;;;;5056488;28;20399;-75
2022/10/24 11:21:03;;;;;;;4.20;0.30;;;18.30;99.90;;;;;;5056486;28;20801;-74
2022/10/24 11:23:55;;;;;;;3.70;0.40;;;18.40;99.90;;;;;;5071008;28;20675;-75
2022/10/24 11:26:34;;;;;;;2.50;0.52;;;18.60;99.90;;;;;;5056349;28;20418;-75
2022/10/24 11:29:27;;;;;;;2.67;0.30;;;18.60;99.90;;;;;;5056343;28;20029;-75
2022/10/24 11:32:06;;;;;;;1.83;0.20;;;18.70;99.90;;;;;;5056010;28;20059;-75
2022/10/24 11:34:41;;;;;;;3.58;0.28;;;18.70;99.90;;;;;;5062767;28;20078;-74
2022/10/24 11:37:12;;;;;;;2.47;0.22;;;18.70;99.90;;;;;;5061208;28;20032;-75
2022/10/24 11:39:51;;;;;;;5.38;0.30;;;18.60;99.90;;;;;;5060157;28;20063;-75
2022/10/24 11:42:22;;;;;;;2.83;0.22;;;18.50;99.90;;;;;;5060740;28;20037;-75
2022/10/24 11:45:13;;;;;;;7.93;0.73;;;18.30;99.90;;;;;;5055671;28;20114;-74
2022/10/24 11:47:55;;;;;;;6.00;0.40;;;17.90;99.90;;;;;;5056818;28;20020;-73
2022/10/24 11:50:33;;;;;;;2.58;0.30;;;17.30;99.90;;;;;;5058525;28;20025;-73
2022/10/24 11:53:21;;;;;;;4.53;0.40;;;16.90;99.90;;;;;;5057454;28;20029;-75
2022/10/24 11:55:55;;;;;;;4.72;0.38;;;16.70;99.90;;;;;;5056384;28;20021;-75
2022/10/24 11:58:24;;;;;;;4.93;0.20;;;16.60;99.90;;;;;;5059191;28;20553;-74
2022/10/24 12:01:35;;;;;;;6.82;0.60;;;16.50;99.90;;;;;;5077712;28;20497;-75
2022/10/24 12:04:09;;;;;;;5.45;0.40;;;16.50;99.90;;;;;;5056444;28;20086;-74
2022/10/24 12:06:53;;;;;;;3.03;0.32;;;16.60;99.90;;;;;;5052942;28;20456;-74
2022/10/24 12:10:13;;;;;;;3.80;0.40;;;16.60;99.90;;;;;;5056807;28;20021;-73
2022/10/24 12:13:10;;;;;;;5.45;0.82;;;16.70;99.90;;;;;;5044830;28;20576;-75
2022/10/24 12:15:54;;;;;;;3.33;0.40;;;16.60;99.90;;;;;;5058960;28;20060;-74
2022/10/24 12:18:33;;;;;;;6.78;0.73;;;16.60;99.90;;;;;;5062591;28;20083;-74
2022/10/24 12:21:07;;;;;;;6.35;0.55;;;16.60;99.90;;;;;;5058021;28;20020;-74
2022/10/24 12:23:33;;;;;;;9.70;0.60;;;16.60;99.90;;;;;;5055742;28;20032;-74
2022/10/24 12:26:19;;;;;;;5.90;0.70;;;16.60;99.90;;;;;;5058507;28;20107;-74
2022/10/24 12:28:56;;;;;;;4.72;0.68;;;16.50;99.90;;;;;;5056096;28;20082;-74
2022/10/24 12:31:29;;;;;;;5.50;0.50;;;16.50;99.90;;;;;;5072210;28;20525;-73
2022/10/24 12:34:14;;;;;;;3.17;0.35;;;16.30;99.90;;;;;;5052913;28;20024;-73
2022/10/24 12:37:08;;;;;;;8.30;0.60;;;16.20;99.90;;;;;;5059138;28;20047;-74
2022/10/24 12:39:36;;;;;;;4.78;0.40;;;16.00;99.90;;;;;;5055712;28;20561;-74
2022/10/24 12:42:01;;;;;;;14.05;0.73;;;15.90;99.90;;;;;;5052505;28;20028;-73
2022/10/24 12:44:38;;;;;;;9.80;1.52;;;15.90;99.90;;;;;;5055913;28;20082;-75
2022/10/24 12:47:32;;;;;;;6.85;0.88;;;15.90;99.90;;;;;;5056508;28;20107;-74
2022/10/24 12:50:21;;;;;;;14.95;2.20;;;16.00;99.90;;;;;;5059359;28;20055;-74
2022/10/24 12:52:46;;;;;;;6.85;0.85;;;16.00;99.90;;;;;;5054561;28;20464;-73
2022/10/24 12:55:50;;;;;;;4.65;0.60;;;16.00;99.90;;;;;;5053637;28;20033;-74
2022/10/24 12:58:34;;;;;;;3.30;0.40;;;16.20;99.90;;;;;;5055758;28;20736;-75
2022/10/24 13:01:05;;;;;;;6.43;0.50;;;16.20;99.90;;;;;;5056462;28;20436;-75
2022/10/24 13:03:49;;;;;;;8.30;0.57;;;16.30;99.90;;;;;;5059552;28;20380;-74
2022/10/24 13:06:31;;;;;;;5.97;0.50;;;16.40;99.90;;;;;;5054154;28;20143;-73
2022/10/24 13:09:08;;;;;;;8.35;0.50;;;16.50;99.90;;;;;;5068777;28;20483;-74
2022/10/24 13:12:07;;;;;;;5.35;0.40;;;16.50;99.90;;;;;;5070261;28;21075;-73